createdAt,value
2018-06-05T00:00:19.381Z,0.00
2018-06-05T00:01:19.381Z,0.00
2018-06-05T00:02:19.392Z,0.00
2018-06-05T00:03:19.387Z,0.00
2018-06-05T00:04:19.389Z,0.00
2018-06-05T00:05:19.391Z,0.00
2018-06-05T00:06:19.393Z,0.00
2018-06-05T00:07:19.398Z,0.00
2018-06-05T00:08:19.400Z,0.00
2018-06-05T00:09:19.401Z,0.00
2018-06-05T00:10:19.403Z,0.00
2018-06-05T00:11:19.406Z,0.00
2018-06-05T00:12:19.411Z,0.00
2018-06-05T00:13:19.409Z,0.00
2018-06-05T00:14:19.412Z,0.00
2018-06-05T00:15:19.420Z,0.00
2018-06-05T00:16:19.417Z,0.00
2018-06-05T00:17:19.419Z,0.00
2018-06-05T00:18:19.421Z,0.00
2018-06-05T00:19:19.424Z,0.00
2018-06-05T00:20:19.425Z,0.00
2018-06-05T00:21:19.427Z,0.00
2018-06-05T00:22:19.430Z,0.00
2018-06-05T00:23:19.435Z,0.00
2018-06-05T00:24:19.436Z,0.00
2018-06-05T00:25:19.438Z,0.00
2018-06-05T00:26:19.441Z,0.00
2018-06-05T00:27:19.442Z,0.00
2018-06-05T00:28:19.444Z,0.00
2018-06-05T00:29:19.446Z,0.00
2018-06-05T00:30:19.448Z,0.00
2018-06-05T00:31:19.450Z,0.00
2018-06-05T00:32:19.454Z,0.00
2018-06-05T00:33:19.454Z,0.00
2018-06-05T00:34:19.457Z,0.00
2018-06-05T00:35:19.459Z,0.00
2018-06-05T00:36:19.462Z,0.00
2018-06-05T00:37:19.463Z,0.00
2018-06-05T00:38:19.466Z,0.00
2018-06-05T00:39:19.468Z,0.00
2018-06-05T00:40:19.471Z,0.00
2018-06-05T00:41:19.471Z,0.00
2018-06-05T00:42:19.473Z,0.00
2018-06-05T00:43:19.476Z,0.00
2018-06-05T00:44:19.479Z,0.00
2018-06-05T00:45:19.480Z,0.00
2018-06-05T00:46:19.483Z,0.00
2018-06-05T00:47:19.485Z,0.00
2018-06-05T00:48:19.489Z,0.00
2018-06-05T00:49:19.492Z,0.00
2018-06-05T00:50:19.491Z,0.00
2018-06-05T00:51:19.495Z,0.00
2018-06-05T00:52:19.496Z,0.00
2018-06-05T00:53:19.498Z,0.00
2018-06-05T00:54:19.500Z,0.00
2018-06-05T00:55:19.501Z,0.00
2018-06-05T00:56:19.504Z,0.00
2018-06-05T00:57:19.505Z,0.00
2018-06-05T00:58:19.508Z,0.00
2018-06-05T00:59:19.510Z,0.00
2018-06-05T01:00:19.513Z,0.00
2018-06-05T01:01:19.514Z,0.00
2018-06-05T01:02:19.517Z,0.00
2018-06-05T01:03:19.518Z,0.00
2018-06-05T01:04:19.520Z,0.00
2018-06-05T01:05:19.521Z,0.00
2018-06-05T01:06:19.525Z,0.00
2018-06-05T01:07:19.526Z,0.00
2018-06-05T01:08:19.529Z,0.00
2018-06-05T01:09:19.529Z,0.00
2018-06-05T01:10:19.532Z,0.00
2018-06-05T01:11:19.533Z,0.00
2018-06-05T01:12:19.536Z,0.00
2018-06-05T01:13:19.538Z,0.00
2018-06-05T01:14:19.539Z,0.00
2018-06-05T01:15:19.541Z,0.00
2018-06-05T01:16:19.543Z,0.00
2018-06-05T01:17:19.546Z,0.00
2018-06-05T01:18:19.549Z,0.00
2018-06-05T01:19:19.550Z,0.00
2018-06-05T01:20:19.555Z,0.00
2018-06-05T01:21:19.553Z,0.00
2018-06-05T01:22:19.556Z,0.00
2018-06-05T01:23:19.558Z,0.00
2018-06-05T01:24:19.559Z,0.00
2018-06-05T01:25:19.561Z,0.00
2018-06-05T01:26:19.562Z,0.00
2018-06-05T01:27:19.565Z,0.00
2018-06-05T01:28:19.567Z,0.00
2018-06-05T01:29:19.567Z,0.00
2018-06-05T01:30:19.571Z,0.00
2018-06-05T01:31:19.571Z,0.00
2018-06-05T01:32:19.574Z,0.00
2018-06-05T01:33:19.576Z,0.00
2018-06-05T01:34:19.578Z,0.00
2018-06-05T01:35:19.580Z,0.00
2018-06-05T01:36:19.587Z,0.00
2018-06-05T01:37:19.582Z,0.00
2018-06-05T01:38:19.585Z,0.00
2018-06-05T01:39:19.588Z,0.00
2018-06-05T01:40:19.590Z,0.00
2018-06-05T01:41:19.590Z,0.00
2018-06-05T01:42:19.593Z,0.00
2018-06-05T01:43:19.593Z,0.00
2018-06-05T01:44:19.596Z,0.00
2018-06-05T01:45:19.596Z,0.00
2018-06-05T01:46:19.599Z,0.00
2018-06-05T01:47:19.601Z,0.00
2018-06-05T01:48:19.603Z,0.00
2018-06-05T01:49:19.604Z,0.00
2018-06-05T01:50:19.607Z,0.00
2018-06-05T01:51:19.609Z,0.00
2018-06-05T01:52:19.610Z,0.00
2018-06-05T01:53:19.611Z,0.00
2018-06-05T01:54:19.614Z,0.00
2018-06-05T01:55:19.615Z,0.00
2018-06-05T01:56:19.619Z,0.00
2018-06-05T01:57:19.618Z,0.00
2018-06-05T01:58:19.620Z,0.00
2018-06-05T01:59:19.622Z,0.00
2018-06-05T02:00:19.634Z,0.00
2018-06-05T02:01:19.624Z,0.00
2018-06-05T02:02:19.627Z,0.00
2018-06-05T02:03:19.628Z,0.00
2018-06-05T02:04:19.630Z,0.00
2018-06-05T02:05:19.630Z,0.00
2018-06-05T02:06:19.634Z,0.00
2018-06-05T02:07:19.635Z,0.00
2018-06-05T02:08:19.638Z,0.00
2018-06-05T02:09:19.638Z,0.00
2018-06-05T02:10:19.639Z,0.00
2018-06-05T02:11:19.641Z,0.00
2018-06-05T02:12:19.645Z,0.00
2018-06-05T02:13:19.645Z,0.00
2018-06-05T02:14:19.647Z,0.00
2018-06-05T02:15:19.648Z,0.00
2018-06-05T02:16:19.651Z,0.00
2018-06-05T02:17:19.654Z,0.00
2018-06-05T02:18:19.653Z,0.00
2018-06-05T02:19:19.654Z,0.00
2018-06-05T02:20:19.656Z,0.00
2018-06-05T02:21:19.662Z,0.00
2018-06-05T02:22:19.660Z,0.00
2018-06-05T02:23:19.662Z,0.00
2018-06-05T02:24:19.663Z,0.00
2018-06-05T02:25:19.665Z,0.00
2018-06-05T02:26:19.665Z,0.00
2018-06-05T02:27:19.667Z,0.00
2018-06-05T02:28:19.670Z,0.00
2018-06-05T02:29:19.671Z,0.00
2018-06-05T02:30:19.673Z,0.00
2018-06-05T02:31:19.673Z,0.00
2018-06-05T02:32:19.675Z,0.00
2018-06-05T02:33:19.676Z,0.00
2018-06-05T02:34:19.696Z,0.00
2018-06-05T02:35:19.680Z,0.00
2018-06-05T02:36:19.682Z,0.00
2018-06-05T02:37:19.683Z,0.00
2018-06-05T02:38:19.684Z,0.00
2018-06-05T02:39:19.688Z,0.00
2018-06-05T02:40:19.688Z,0.00
2018-06-05T02:41:19.692Z,0.00
2018-06-05T02:42:19.692Z,0.00
2018-06-05T02:43:19.692Z,0.00
2018-06-05T02:44:19.694Z,0.00
2018-06-05T02:45:19.698Z,0.00
2018-06-05T02:46:19.696Z,0.00
2018-06-05T02:47:19.698Z,0.00
2018-06-05T02:48:19.699Z,0.00
2018-06-05T02:49:19.701Z,4.00
2018-06-05T02:50:19.701Z,4.00
2018-06-05T02:51:19.706Z,0.00
2018-06-05T02:52:19.706Z,0.00
2018-06-05T02:53:19.707Z,4.00
2018-06-05T02:54:19.709Z,4.00
2018-06-05T02:55:19.710Z,4.00
2018-06-05T02:56:19.715Z,4.00
2018-06-05T02:57:19.715Z,4.00
2018-06-05T02:58:19.718Z,4.00
2018-06-05T02:59:19.715Z,4.00
2018-06-05T03:00:19.718Z,4.00
2018-06-05T03:01:19.719Z,8.00
2018-06-05T03:02:19.719Z,8.00
2018-06-05T03:03:19.722Z,8.00
2018-06-05T03:04:19.724Z,8.00
2018-06-05T03:05:19.725Z,12.00
2018-06-05T03:06:19.725Z,12.00
2018-06-05T03:07:19.728Z,12.00
2018-06-05T03:08:19.729Z,16.00
2018-06-05T03:09:19.729Z,16.00
2018-06-05T03:10:19.731Z,20.00
2018-06-05T03:11:19.733Z,20.00
2018-06-05T03:12:19.734Z,24.00
2018-06-05T03:13:19.734Z,24.00
2018-06-05T03:14:19.737Z,28.00
2018-06-05T03:15:19.742Z,32.00
2018-06-05T03:16:19.740Z,32.00
2018-06-05T03:17:19.741Z,40.00
2018-06-05T03:18:19.743Z,40.00
2018-06-05T03:19:19.745Z,44.00
2018-06-05T03:20:19.745Z,48.00
2018-06-05T03:21:19.746Z,52.00
2018-06-05T03:22:19.748Z,60.00
2018-06-05T03:23:19.750Z,64.00
2018-06-05T03:24:19.750Z,68.00
2018-06-05T03:25:19.752Z,72.00
2018-06-05T03:26:19.753Z,80.00
2018-06-05T03:27:19.755Z,84.00
2018-06-05T03:28:19.755Z,88.00
2018-06-05T03:29:19.757Z,96.00
2018-06-05T03:30:19.758Z,100.00
2018-06-05T03:31:19.760Z,104.00
2018-06-05T03:32:19.762Z,108.00
2018-06-05T03:33:19.761Z,116.00
2018-06-05T03:34:19.769Z,124.00
2018-06-05T03:35:19.766Z,128.00
2018-06-05T03:36:19.768Z,136.00
2018-06-05T03:37:19.767Z,144.00
2018-06-05T03:38:19.769Z,152.00
2018-06-05T03:39:19.773Z,160.00
2018-06-05T03:40:19.772Z,168.00
2018-06-05T03:41:19.773Z,172.00
2018-06-05T03:42:19.774Z,184.00
2018-06-05T03:43:19.776Z,188.00
2018-06-05T03:44:19.777Z,200.00
2018-06-05T03:45:19.777Z,208.00
2018-06-05T03:46:19.780Z,216.00
2018-06-05T03:47:19.781Z,228.00
2018-06-05T03:48:19.781Z,240.00
2018-06-05T03:49:19.783Z,248.00
2018-06-05T03:50:19.784Z,260.00
2018-06-05T03:51:19.785Z,272.00
2018-06-05T03:52:19.788Z,284.00
2018-06-05T03:53:19.788Z,292.00
2018-06-05T03:54:19.792Z,304.00
2018-06-05T03:55:19.792Z,312.00
2018-06-05T03:56:19.793Z,324.00
2018-06-05T03:57:19.795Z,332.00
2018-06-05T03:58:19.795Z,336.00
2018-06-05T03:59:19.797Z,348.00
2018-06-05T04:00:19.798Z,356.00
2018-06-05T04:01:19.799Z,364.00
2018-06-05T04:02:19.800Z,380.00
2018-06-05T04:03:19.802Z,396.00
2018-06-05T04:04:19.830Z,408.00
2018-06-05T04:05:19.803Z,424.00
2018-06-05T04:06:19.806Z,436.00
2018-06-05T04:07:19.806Z,452.00
2018-06-05T04:08:19.809Z,476.00
2018-06-05T04:09:19.809Z,504.00
2018-06-05T04:10:19.810Z,528.00
2018-06-05T04:11:19.811Z,544.00
2018-06-05T04:12:19.812Z,560.00
2018-06-05T04:13:19.815Z,596.00
2018-06-05T04:14:19.816Z,624.00
2018-06-05T04:15:19.818Z,648.00
2018-06-05T04:16:19.818Z,648.00
2018-06-05T04:17:19.820Z,636.00
2018-06-05T04:18:19.836Z,640.00
2018-06-05T04:19:19.825Z,652.00
2018-06-05T04:20:19.824Z,660.00
2018-06-05T04:21:19.824Z,684.00
2018-06-05T04:22:19.828Z,708.00
2018-06-05T04:23:19.828Z,736.00
2018-06-05T04:24:19.830Z,760.00
2018-06-05T04:25:19.831Z,792.00
2018-06-05T04:26:19.834Z,800.00
2018-06-05T04:27:19.834Z,804.00
2018-06-05T04:28:19.836Z,812.00
2018-06-05T04:29:19.835Z,832.00
2018-06-05T04:30:19.837Z,892.00
2018-06-05T04:31:19.839Z,960.00
2018-06-05T04:32:19.842Z,1000.00
2018-06-05T04:33:19.842Z,1016.00
2018-06-05T04:34:19.845Z,1028.00
2018-06-05T04:35:19.846Z,1004.00
2018-06-05T04:36:19.849Z,952.00
2018-06-05T04:37:19.849Z,916.00
2018-06-05T04:38:19.850Z,888.00
2018-06-05T04:39:19.853Z,876.00
2018-06-05T04:40:19.854Z,868.00
2018-06-05T04:41:19.855Z,884.00
2018-06-05T04:42:19.856Z,924.00
2018-06-05T04:43:19.857Z,984.00
2018-06-05T04:44:19.861Z,1024.00
2018-06-05T04:45:19.860Z,1056.00
2018-06-05T04:46:19.864Z,1084.00
2018-06-05T04:47:19.865Z,1124.00
2018-06-05T04:48:19.867Z,1152.00
2018-06-05T04:49:19.868Z,1128.00
2018-06-05T04:50:19.873Z,1092.00
2018-06-05T04:51:19.871Z,1068.00
2018-06-05T04:52:19.877Z,1048.00
2018-06-05T04:53:19.875Z,1028.00
2018-06-05T04:54:19.875Z,1044.00
2018-06-05T04:55:19.877Z,1076.00
2018-06-05T04:56:19.879Z,1120.00
2018-06-05T04:57:19.880Z,1168.00
2018-06-05T04:58:19.887Z,1232.00
2018-06-05T04:59:19.884Z,1216.00
2018-06-05T05:00:19.887Z,1176.00
2018-06-05T05:01:19.886Z,1132.00
2018-06-05T05:02:19.888Z,1116.00
2018-06-05T05:03:19.936Z,1092.00
2018-06-05T05:04:19.892Z,1156.00
2018-06-05T05:05:19.894Z,1208.00
2018-06-05T05:06:19.895Z,1228.00
2018-06-05T05:07:19.903Z,1232.00
2018-06-05T05:08:19.899Z,1240.00
2018-06-05T05:09:19.900Z,1220.00
2018-06-05T05:10:19.905Z,1204.00
2018-06-05T05:11:19.905Z,1200.00
2018-06-05T05:12:19.910Z,1256.00
2018-06-05T05:13:19.913Z,1296.00
2018-06-05T05:14:19.910Z,1304.00
2018-06-05T05:15:19.915Z,1316.00
2018-06-05T05:16:19.942Z,1508.00
2018-06-05T05:17:19.917Z,1640.00
2018-06-05T05:18:19.917Z,1664.00
2018-06-05T05:19:19.922Z,1708.00
2018-06-05T05:20:19.922Z,1764.00
2018-06-05T05:21:19.923Z,1800.00
2018-06-05T05:22:19.926Z,1824.00
2018-06-05T05:23:19.971Z,1848.00
2018-06-05T05:24:19.930Z,1852.00
2018-06-05T05:25:19.931Z,1872.00
2018-06-05T05:26:19.935Z,1896.00
2018-06-05T05:27:19.934Z,1912.00
2018-06-05T05:28:19.937Z,1940.00
2018-06-05T05:29:19.939Z,1972.00
2018-06-05T05:30:19.940Z,1992.00
2018-06-05T05:31:19.943Z,2016.00
2018-06-05T05:32:19.945Z,2056.00
2018-06-05T05:33:19.946Z,2072.00
2018-06-05T05:34:19.948Z,2092.00
2018-06-05T05:35:19.952Z,2108.00
2018-06-05T05:36:19.953Z,2116.00
2018-06-05T05:37:19.956Z,2100.00
2018-06-05T05:38:19.958Z,2112.00
2018-06-05T05:39:19.959Z,2148.00
2018-06-05T05:40:19.962Z,2156.00
2018-06-05T05:41:19.964Z,2204.00
2018-06-05T05:42:19.964Z,2252.00
2018-06-05T05:43:19.968Z,2276.00
2018-06-05T05:44:19.970Z,2332.00
2018-06-05T05:45:19.971Z,2368.00
2018-06-05T05:46:19.975Z,2396.00
2018-06-05T05:47:19.978Z,2432.00
2018-06-05T05:48:19.978Z,2492.00
2018-06-05T05:49:19.981Z,2532.00
2018-06-05T05:50:19.983Z,2572.00
2018-06-05T05:51:19.987Z,2644.00
2018-06-05T05:52:19.987Z,2700.00
2018-06-05T05:53:19.989Z,2744.00
2018-06-05T05:54:19.992Z,2784.00
2018-06-05T05:55:19.996Z,2768.00
2018-06-05T05:56:19.999Z,2820.00
2018-06-05T05:57:19.999Z,2864.00
2018-06-05T05:58:20.002Z,2912.00
2018-06-05T05:59:20.006Z,2940.00
2018-06-05T06:00:20.008Z,2968.00
2018-06-05T06:01:20.009Z,2984.00
2018-06-05T06:02:20.012Z,3020.00
2018-06-05T06:03:20.016Z,3076.00
2018-06-05T06:04:20.019Z,3112.00
2018-06-05T06:05:20.021Z,3136.00
2018-06-05T06:06:20.024Z,3152.00
2018-06-05T06:07:20.025Z,3180.00
2018-06-05T06:08:20.027Z,3220.00
2018-06-05T06:09:20.030Z,3232.00
2018-06-05T06:10:20.133Z,3256.00
2018-06-05T06:11:20.153Z,3288.00
2018-06-05T06:12:20.040Z,3300.00
2018-06-05T06:13:20.109Z,3312.00
2018-06-05T06:14:20.078Z,3320.00
2018-06-05T06:15:20.110Z,3360.00
2018-06-05T06:16:20.160Z,3380.00
2018-06-05T06:17:20.052Z,3264.00
2018-06-05T06:18:20.055Z,3404.00
2018-06-05T06:19:20.059Z,3448.00
2018-06-05T06:20:20.062Z,3464.00
2018-06-05T06:21:20.065Z,3584.00
2018-06-05T06:22:20.068Z,3600.00
2018-06-05T06:23:20.070Z,3616.00
2018-06-05T06:24:20.073Z,3564.00
2018-06-05T06:25:20.077Z,3412.00
2018-06-05T06:26:20.080Z,3260.00
2018-06-05T06:27:20.082Z,2984.00
2018-06-05T06:28:20.085Z,3532.00
2018-06-05T06:29:20.090Z,3204.00
2018-06-05T06:30:20.092Z,3704.00
2018-06-05T06:31:20.095Z,3768.00
2018-06-05T06:32:20.098Z,3804.00
2018-06-05T06:33:20.101Z,3792.00
2018-06-05T06:34:20.105Z,3832.00
2018-06-05T06:35:20.108Z,3844.00
2018-06-05T06:36:20.111Z,3856.00
2018-06-05T06:37:20.115Z,3876.00
2018-06-05T06:38:20.118Z,3928.00
2018-06-05T06:39:20.122Z,3972.00
2018-06-05T06:40:20.127Z,4036.00
2018-06-05T06:41:20.127Z,4060.00
2018-06-05T06:42:20.132Z,4076.00
2018-06-05T06:43:20.135Z,4092.00
2018-06-05T06:44:20.141Z,4092.00
2018-06-05T06:45:20.142Z,4104.00
2018-06-05T06:46:20.146Z,4152.00
2018-06-05T06:47:20.149Z,4208.00
2018-06-05T06:48:20.156Z,4244.00
2018-06-05T06:49:20.156Z,4296.00
2018-06-05T06:50:20.161Z,4336.00
2018-06-05T06:51:20.165Z,4320.00
2018-06-05T06:52:20.168Z,4328.00
2018-06-05T06:53:20.179Z,4380.00
2018-06-05T06:54:20.179Z,4380.00
2018-06-05T06:55:20.179Z,4412.00
2018-06-05T06:56:20.185Z,4432.00
2018-06-05T06:57:20.190Z,4468.00
2018-06-05T06:58:20.191Z,4480.00
2018-06-05T06:59:20.195Z,4496.00
2018-06-05T07:00:20.201Z,4520.00
2018-06-05T07:01:20.204Z,4540.00
2018-06-05T07:02:20.209Z,4560.00
2018-06-05T07:03:20.213Z,4580.00
2018-06-05T07:04:20.217Z,4600.00
2018-06-05T07:05:20.222Z,4632.00
2018-06-05T07:06:20.224Z,4656.00
2018-06-05T07:07:20.230Z,4696.00
2018-06-05T07:08:20.236Z,4708.00
2018-06-05T07:09:20.238Z,4720.00
2018-06-05T07:10:20.243Z,4744.00
2018-06-05T07:11:20.247Z,4772.00
2018-06-05T07:12:20.271Z,4788.00
2018-06-05T07:13:20.257Z,4784.00
2018-06-05T07:14:20.261Z,4808.00
2018-06-05T07:15:20.265Z,4832.00
2018-06-05T07:16:20.274Z,4852.00
2018-06-05T07:17:20.274Z,4876.00
2018-06-05T07:18:20.286Z,4864.00
2018-06-05T07:19:20.284Z,4872.00
2018-06-05T07:20:20.289Z,4880.00
2018-06-05T07:21:20.294Z,4884.00
2018-06-05T07:22:20.298Z,4904.00
2018-06-05T07:23:20.303Z,4968.00
2018-06-05T07:24:20.309Z,5164.00
2018-06-05T07:25:20.314Z,19392.00
2018-06-05T07:26:20.318Z,63904.00
2018-06-05T07:27:20.324Z,72384.00
2018-06-05T07:28:20.331Z,60000.00
2018-06-05T07:29:20.337Z,73472.00
2018-06-05T07:30:20.355Z,75296.00
2018-06-05T07:31:20.353Z,79552.00
2018-06-05T07:32:20.358Z,79712.00
2018-06-05T07:33:20.366Z,74400.00
2018-06-05T07:34:20.374Z,73632.00
2018-06-05T07:35:20.382Z,63168.00
2018-06-05T07:36:20.390Z,45216.00
2018-06-05T07:37:20.399Z,40224.00
2018-06-05T07:38:20.409Z,46784.00
2018-06-05T07:39:20.420Z,50848.00
2018-06-05T07:40:20.428Z,34464.00
2018-06-05T07:41:20.437Z,34080.00
2018-06-05T07:42:20.447Z,25664.00
2018-06-05T07:43:20.454Z,23168.00
2018-06-05T07:44:20.474Z,23552.00
2018-06-05T07:45:20.476Z,23008.00
2018-06-05T07:46:20.483Z,20672.00
2018-06-05T07:47:20.492Z,16896.00
2018-06-05T07:48:20.502Z,25440.00
2018-06-05T07:49:20.510Z,25472.00
2018-06-05T07:50:20.522Z,16768.00
2018-06-05T07:51:20.530Z,18624.00
2018-06-05T07:52:20.539Z,17664.00
2018-06-05T07:53:20.575Z,16608.00
2018-06-05T07:54:20.558Z,34688.00
2018-06-05T07:55:20.647Z,44032.00
2018-06-05T07:56:20.578Z,63520.00
2018-06-05T07:57:20.585Z,67456.00
2018-06-05T07:58:20.596Z,75040.00
2018-06-05T07:59:20.608Z,73024.00
2018-06-05T08:00:20.618Z,70048.00
2018-06-05T08:01:20.628Z,73056.00
2018-06-05T08:02:20.641Z,77664.00
2018-06-05T08:03:20.654Z,70752.00
2018-06-05T08:04:20.712Z,63584.00
2018-06-05T08:05:20.678Z,68448.00
2018-06-05T08:06:20.692Z,68928.00
2018-06-05T08:07:20.704Z,68544.00
2018-06-05T08:08:20.719Z,65760.00
2018-06-05T08:09:20.731Z,65632.00
2018-06-05T08:10:20.748Z,68544.00
2018-06-05T08:11:20.760Z,66816.00
2018-06-05T08:12:20.773Z,65024.00
2018-06-05T08:13:20.788Z,63552.00
2018-06-05T08:14:20.802Z,62624.00
2018-06-05T08:15:20.819Z,63552.00
2018-06-05T08:16:20.833Z,64576.00
2018-06-05T08:17:20.847Z,63744.00
2018-06-05T08:18:20.863Z,61952.00
2018-06-05T08:19:20.878Z,70752.00
2018-06-05T08:20:20.893Z,68800.00
2018-06-05T08:21:20.908Z,60352.00
2018-06-05T08:22:20.923Z,63616.00
2018-06-05T08:23:20.939Z,62880.00
2018-06-05T08:24:20.973Z,59936.00
2018-06-05T08:25:20.970Z,61824.00
2018-06-05T08:26:20.985Z,64032.00
2018-06-05T08:27:21.004Z,59520.00
2018-06-05T08:28:21.019Z,57856.00
2018-06-05T08:29:21.034Z,63392.00
2018-06-05T08:30:21.056Z,59616.00
2018-06-05T08:31:21.067Z,58816.00
2018-06-05T08:32:21.083Z,60544.00
2018-06-05T08:33:21.099Z,60992.00
2018-06-05T08:34:21.116Z,60448.00
2018-06-05T08:35:21.132Z,57696.00
2018-06-05T08:36:21.149Z,58240.00
2018-06-05T08:37:21.165Z,59392.00
2018-06-05T08:38:21.181Z,57696.00
2018-06-05T08:39:21.198Z,57216.00
2018-06-05T08:40:21.214Z,58752.00
2018-06-05T08:41:21.230Z,62560.00
2018-06-05T08:42:21.246Z,67360.00
2018-06-05T08:43:21.265Z,57184.00
2018-06-05T08:44:21.280Z,53408.00
2018-06-05T08:45:21.298Z,58848.00
2018-06-05T08:46:21.313Z,60128.00
2018-06-05T08:47:21.331Z,60800.00
2018-06-05T08:48:21.348Z,60416.00
2018-06-05T08:49:21.364Z,57312.00
2018-06-05T08:50:21.379Z,58720.00
2018-06-05T08:51:21.398Z,59424.00
2018-06-05T08:52:21.415Z,55712.00
2018-06-05T08:53:21.430Z,57344.00
2018-06-05T08:54:21.447Z,59232.00
2018-06-05T08:55:21.521Z,58144.00
2018-06-05T08:56:21.480Z,58048.00
2018-06-05T08:57:21.495Z,57152.00
2018-06-05T08:58:21.511Z,56416.00
2018-06-05T08:59:21.528Z,56800.00
2018-06-05T09:00:21.545Z,58496.00
2018-06-05T09:01:21.561Z,59040.00
2018-06-05T09:02:21.578Z,57312.00
2018-06-05T09:03:21.591Z,54368.00
2018-06-05T09:04:21.609Z,56640.00
2018-06-05T09:05:21.681Z,56928.00
2018-06-05T09:06:21.640Z,56608.00
2018-06-05T09:07:21.656Z,54400.00
2018-06-05T09:08:21.674Z,51616.00
2018-06-05T09:09:21.687Z,52672.00
2018-06-05T09:10:21.706Z,51552.00
2018-06-05T09:11:21.721Z,48640.00
2018-06-05T09:12:21.735Z,51072.00
2018-06-05T09:13:21.754Z,54592.00
2018-06-05T09:14:21.768Z,52288.00
2018-06-05T09:15:21.783Z,48480.00
2018-06-05T09:16:21.799Z,48000.00
2018-06-05T09:17:21.816Z,46976.00
2018-06-05T09:18:21.830Z,43968.00
2018-06-05T09:19:21.849Z,45152.00
2018-06-05T09:20:21.865Z,44672.00
2018-06-05T09:21:21.878Z,44192.00
2018-06-05T09:22:21.892Z,44288.00
2018-06-05T09:23:21.910Z,43840.00
2018-06-05T09:24:21.928Z,42272.00
2018-06-05T09:25:21.952Z,42336.00
2018-06-05T09:26:21.957Z,40032.00
2018-06-05T09:27:21.972Z,42080.00
2018-06-05T09:28:21.989Z,41920.00
2018-06-05T09:29:22.004Z,38240.00
2018-06-05T09:30:22.019Z,38944.00
2018-06-05T09:31:22.036Z,41504.00
2018-06-05T09:32:22.149Z,40832.00
2018-06-05T09:33:22.066Z,39040.00
2018-06-05T09:34:22.103Z,38496.00
2018-06-05T09:35:22.099Z,38624.00
2018-06-05T09:36:22.113Z,37920.00
2018-06-05T09:37:22.129Z,37536.00
2018-06-05T09:38:22.145Z,37952.00
2018-06-05T09:39:22.160Z,35552.00
2018-06-05T09:40:22.181Z,34720.00
2018-06-05T09:41:22.191Z,33856.00
2018-06-05T09:42:22.208Z,34400.00
2018-06-05T09:43:22.223Z,35296.00
2018-06-05T09:44:22.238Z,34496.00
2018-06-05T09:45:22.254Z,33952.00
2018-06-05T09:46:22.273Z,33344.00
2018-06-05T09:47:22.286Z,31680.00
2018-06-05T09:48:22.301Z,31264.00
2018-06-05T09:49:22.315Z,29664.00
2018-06-05T09:50:22.331Z,27904.00
2018-06-05T09:51:22.348Z,28768.00
2018-06-05T09:52:22.365Z,28544.00
2018-06-05T09:53:22.652Z,27040.00
2018-06-05T09:54:22.392Z,29152.00
2018-06-05T09:55:22.490Z,27712.00
2018-06-05T09:56:22.426Z,26304.00
2018-06-05T09:57:22.438Z,25856.00
2018-06-05T09:58:22.659Z,24448.00
2018-06-05T09:59:22.470Z,22432.00
2018-06-05T10:00:22.488Z,23200.00
2018-06-05T10:01:22.500Z,22816.00
2018-06-05T10:02:22.516Z,23808.00
2018-06-05T10:03:22.625Z,23840.00
2018-06-05T10:04:22.547Z,21760.00
2018-06-05T10:05:22.562Z,22560.00
2018-06-05T10:06:22.577Z,20992.00
2018-06-05T10:07:22.858Z,19744.00
2018-06-05T10:08:22.606Z,20064.00
2018-06-05T10:09:22.779Z,18560.00
2018-06-05T10:10:22.636Z,18336.00
2018-06-05T10:11:22.716Z,17792.00
2018-06-05T10:12:22.667Z,17408.00
2018-06-05T10:13:22.683Z,16064.00
2018-06-05T10:14:22.732Z,15296.00
2018-06-05T10:15:22.841Z,15872.00
2018-06-05T10:16:23.000Z,16832.00
2018-06-05T10:17:22.742Z,16032.00
2018-06-05T10:18:22.756Z,13632.00
2018-06-05T10:19:22.775Z,15712.00
2018-06-05T10:20:22.840Z,18528.00
2018-06-05T10:21:22.846Z,17056.00
2018-06-05T10:22:22.816Z,17600.00
2018-06-05T10:23:22.833Z,15296.00
2018-06-05T10:24:22.848Z,11060.00
2018-06-05T10:25:22.929Z,9152.00
2018-06-05T10:26:22.877Z,8188.00
2018-06-05T10:27:22.899Z,7852.00
2018-06-05T10:28:22.906Z,7780.00
2018-06-05T10:29:22.921Z,7780.00
2018-06-05T10:30:22.935Z,7756.00
2018-06-05T10:31:22.950Z,7644.00
2018-06-05T10:32:22.964Z,7648.00
2018-06-05T10:33:22.978Z,7608.00
2018-06-05T10:34:22.992Z,7544.00
2018-06-05T10:35:23.007Z,7640.00
2018-06-05T10:36:23.022Z,7696.00
2018-06-05T10:37:23.035Z,7800.00
2018-06-05T10:38:23.048Z,8020.00
2018-06-05T10:39:23.066Z,8268.00
2018-06-05T10:40:23.078Z,8444.00
2018-06-05T10:41:23.091Z,5952.00
2018-06-05T10:42:23.104Z,7672.00
2018-06-05T10:43:23.119Z,7848.00
2018-06-05T10:44:23.133Z,7768.00
2018-06-05T10:45:23.147Z,7872.00
2018-06-05T10:46:23.160Z,8056.00
2018-06-05T10:47:23.188Z,8236.00
2018-06-05T10:48:23.189Z,8268.00
2018-06-05T10:49:23.203Z,8116.00
2018-06-05T10:50:23.217Z,7724.00
2018-06-05T10:51:23.230Z,7336.00
2018-06-05T10:52:23.245Z,7028.00
2018-06-05T10:53:23.258Z,6972.00
2018-06-05T10:54:23.273Z,6944.00
2018-06-05T10:55:23.395Z,6996.00
2018-06-05T10:56:23.301Z,7048.00
2018-06-05T10:57:23.314Z,7252.00
2018-06-05T10:58:23.329Z,7396.00
2018-06-05T10:59:23.343Z,7428.00
2018-06-05T11:00:23.367Z,7408.00
2018-06-05T11:01:23.370Z,7472.00
2018-06-05T11:02:23.383Z,7532.00
2018-06-05T11:03:23.397Z,7536.00
2018-06-05T11:04:23.410Z,7328.00
2018-06-05T11:05:23.424Z,7188.00
2018-06-05T11:06:23.441Z,7176.00
2018-06-05T11:07:23.453Z,7156.00
2018-06-05T11:08:23.466Z,7076.00
2018-06-05T11:09:23.478Z,7092.00
2018-06-05T11:10:23.492Z,7100.00
2018-06-05T11:11:23.505Z,7252.00
2018-06-05T11:12:23.520Z,7348.00
2018-06-05T11:13:23.532Z,7472.00
2018-06-05T11:14:23.636Z,7660.00
2018-06-05T11:15:23.559Z,7676.00
2018-06-05T11:16:23.576Z,7508.00
2018-06-05T11:17:23.836Z,7416.00
2018-06-05T11:18:23.603Z,7388.00
2018-06-05T11:19:23.629Z,7336.00
2018-06-05T11:20:23.627Z,7256.00
2018-06-05T11:21:23.638Z,7328.00
2018-06-05T11:22:23.651Z,7316.00
2018-06-05T11:23:23.666Z,7204.00
2018-06-05T11:24:23.678Z,7144.00
2018-06-05T11:25:23.778Z,7100.00
2018-06-05T11:26:23.705Z,7072.00
2018-06-05T11:27:23.719Z,7056.00
2018-06-05T11:28:23.731Z,7084.00
2018-06-05T11:29:23.743Z,7064.00
2018-06-05T11:30:23.773Z,7096.00
2018-06-05T11:31:23.791Z,7096.00
2018-06-05T11:32:23.783Z,7088.00
2018-06-05T11:33:23.797Z,7132.00
2018-06-05T11:34:23.809Z,7168.00
2018-06-05T11:35:23.823Z,7244.00
2018-06-05T11:36:23.839Z,7276.00
2018-06-05T11:37:23.853Z,7260.00
2018-06-05T11:38:24.069Z,7236.00
2018-06-05T11:39:23.875Z,7228.00
2018-06-05T11:40:23.887Z,7320.00
2018-06-05T11:41:24.048Z,7332.00
2018-06-05T11:42:23.935Z,7336.00
2018-06-05T11:43:23.926Z,7384.00
2018-06-05T11:44:23.939Z,7452.00
2018-06-05T11:45:23.952Z,7532.00
2018-06-05T11:46:23.967Z,7752.00
2018-06-05T11:47:23.979Z,7880.00
2018-06-05T11:48:23.996Z,7968.00
2018-06-05T11:49:24.006Z,8212.00
2018-06-05T11:50:24.020Z,8592.00
2018-06-05T11:51:24.034Z,8716.00
2018-06-05T11:52:24.045Z,8620.00
2018-06-05T11:53:24.057Z,8496.00
2018-06-05T11:54:24.070Z,8400.00
2018-06-05T11:55:24.147Z,8344.00
2018-06-05T11:56:24.355Z,8472.00
2018-06-05T11:57:24.108Z,8628.00
2018-06-05T11:58:24.119Z,8680.00
2018-06-05T11:59:24.136Z,8812.00
2018-06-05T12:00:24.145Z,8964.00
2018-06-05T12:01:24.160Z,8980.00
2018-06-05T12:02:24.170Z,9044.00
2018-06-05T12:03:24.182Z,9244.00
2018-06-05T12:04:24.196Z,9408.00
2018-06-05T12:05:24.469Z,9652.00
2018-06-05T12:06:24.333Z,9640.00
2018-06-05T12:07:24.259Z,9212.00
2018-06-05T12:08:24.461Z,9184.00
2018-06-05T12:09:24.506Z,9176.00
2018-06-05T12:10:24.729Z,9156.00
2018-06-05T12:11:24.472Z,2964.00
2018-06-05T12:12:24.544Z,2584.00
2018-06-05T12:13:24.556Z,2684.00
2018-06-05T12:14:24.353Z,2048.00
2018-06-05T12:15:24.331Z,2044.00
2018-06-05T12:16:24.341Z,1944.00
2018-06-05T12:17:24.352Z,1840.00
2018-06-05T12:18:24.364Z,1868.00
2018-06-05T12:19:24.375Z,1920.00
2018-06-05T12:20:24.386Z,2152.00